Time,TemperatureF,DewpointF,PressureIn,WindDirection,WindDirectionDegrees,WindSpeedMPH,WindSpeedGustMPH,Humidity,HourlyPrecipIn,Conditions,Clouds,dailyrainin,SoftwareType,DateUTC
2013-08-09 00:00:00,62.9,59.0,29.99,South,182,1.0,2.0,87,0.00,,,0.02,Wunderground v.1.15,2013-08-09 05:00:00,
2013-08-09 00:05:00,62.6,58.4,29.99,South,181,1.0,2.0,86,0.00,,,0.02,Wunderground v.1.15,2013-08-09 05:05:00,
2013-08-09 00:15:00,62.5,58.6,29.99,South,181,0.0,2.0,87,0.00,,,0.02,Wunderground v.1.15,2013-08-09 05:15:00,
2013-08-09 00:20:00,62.9,59.3,29.99,SSW,211,1.0,3.0,88,0.00,,,0.02,Wunderground v.1.15,2013-08-09 05:20:00,
2013-08-09 00:30:00,63.2,59.3,29.99,SW,215,1.0,1.0,87,0.00,,,0.02,Wunderground v.1.15,2013-08-09 05:30:00,
2013-08-09 00:40:00,63.1,59.2,29.99,SW,215,0.0,2.0,87,0.00,,,0.02,Wunderground v.1.15,2013-08-09 05:40:00,
2013-08-09 00:50:00,63.1,59.2,30.00,SW,215,0.0,2.0,87,0.00,,,0.02,Wunderground v.1.15,2013-08-09 05:50:00,
2013-08-09 00:55:00,63.0,59.1,30.00,SW,215,0.0,2.0,87,0.00,,,0.02,Wunderground v.1.15,2013-08-09 05:55:00,
2013-08-09 01:05:00,62.6,58.7,30.00,SW,215,0.0,2.0,87,0.00,,,0.00,Wunderground v.1.15,2013-08-09 06:05:00,
2013-08-09 01:10:00,62.3,58.4,30.00,SW,215,0.0,2.0,87,0.00,,,0.00,Wunderground v.1.15,2013-08-09 06:10:00,
2013-08-09 01:20:00,62.2,58.6,30.00,SW,215,0.0,2.0,88,0.00,,,0.00,Wunderground v.1.15,2013-08-09 06:20:00,
2013-08-09 01:30:00,62.5,58.9,30.00,SW,215,0.0,2.0,88,0.00,,,0.00,Wunderground v.1.15,2013-08-09 06:30:00,
2013-08-09 01:40:00,62.7,59.1,30.00,SW,215,1.0,1.0,88,0.00,,,0.00,Wunderground v.1.15,2013-08-09 06:40:00,
2013-08-09 01:45:00,62.3,58.4,30.00,SW,215,1.0,2.0,87,0.00,,,0.00,Wunderground v.1.15,2013-08-09 06:45:00,
2013-08-09 01:55:00,62.0,58.4,30.00,SW,215,0.0,2.0,88,0.00,,,0.00,Wunderground v.1.15,2013-08-09 06:55:00,
2013-08-09 02:00:00,61.9,58.3,30.00,SW,215,0.0,2.0,88,0.00,,,0.00,Wunderground v.1.15,2013-08-09 07:00:00,
2013-08-09 02:10:00,61.7,58.1,30.00,SW,215,0.0,2.0,88,0.00,,,0.00,Wunderground v.1.15,2013-08-09 07:10:00,
2013-08-09 02:20:00,62.1,58.8,30.00,SW,215,0.0,2.0,89,0.00,,,0.00,Wunderground v.1.15,2013-08-09 07:20:00,
2013-08-09 02:30:00,62.1,58.8,30.00,SW,215,0.0,2.0,89,0.00,,,0.00,Wunderground v.1.15,2013-08-09 07:30:00,
2013-08-09 02:35:00,62.4,59.1,30.00,SW,216,1.0,2.0,89,0.00,,,0.00,Wunderground v.1.15,2013-08-09 07:35:00,
2013-08-09 02:40:00,62.5,59.2,30.00,SW,216,1.0,1.0,89,0.00,,,0.00,Wunderground v.1.15,2013-08-09 07:40:00,
2013-08-09 02:50:00,62.9,59.6,29.99,NNE,12,1.0,4.0,89,0.00,,,0.00,Wunderground v.1.15,2013-08-09 07:50:00,
2013-08-09 03:00:00,62.5,58.9,30.00,North,11,2.0,2.0,88,0.00,,,0.00,Wunderground v.1.15,2013-08-09 08:00:00,
2013-08-09 03:10:00,62.6,59.0,30.00,North,355,2.0,3.0,88,0.00,,,0.00,Wunderground v.1.15,2013-08-09 08:10:00,
2013-08-09 03:20:00,63.1,59.5,30.00,North,355,3.0,3.0,88,0.00,,,0.00,Wunderground v.1.15,2013-08-09 08:20:00,
2013-08-09 03:25:00,63.1,59.5,30.00,North,355,2.0,3.0,88,0.00,,,0.00,Wunderground v.1.15,2013-08-09 08:25:00,
2013-08-09 03:35:00,62.9,59.3,30.00,North,355,0.0,2.0,88,0.00,,,0.00,Wunderground v.1.15,2013-08-09 08:35:00,
2013-08-09 03:40:00,62.9,59.3,30.00,North,355,0.0,2.0,88,0.00,,,0.00,Wunderground v.1.15,2013-08-09 08:40:00,
2013-08-09 03:50:00,62.5,58.9,30.00,SW,219,1.0,2.0,88,0.00,,,0.00,Wunderground v.1.15,2013-08-09 08:50:00,
2013-08-09 04:00:00,61.8,58.2,30.00,SW,219,1.0,1.0,88,0.00,,,0.00,Wunderground v.1.15,2013-08-09 09:00:00,
2013-08-09 04:05:00,61.6,58.0,30.00,SW,219,0.0,2.0,88,0.00,,,0.00,Wunderground v.1.15,2013-08-09 09:05:00,
2013-08-09 04:15:00,61.2,57.9,30.01,SW,219,1.0,2.0,89,0.00,,,0.00,Wunderground v.1.15,2013-08-09 09:15:00,
2013-08-09 04:20:00,61.1,57.8,30.01,SW,219,0.0,2.0,89,0.00,,,0.00,Wunderground v.1.15,2013-08-09 09:20:00,
2013-08-09 04:30:00,60.9,57.6,30.02,SW,219,0.0,2.0,89,0.00,,,0.00,Wunderground v.1.15,2013-08-09 09:30:00,
2013-08-09 04:40:00,60.9,57.9,30.02,SW,219,0.0,2.0,90,0.00,,,0.00,Wunderground v.1.15,2013-08-09 09:40:00,
2013-08-09 04:50:00,60.8,57.8,30.02,SW,219,0.0,2.0,90,0.00,,,0.00,Wunderground v.1.15,2013-08-09 09:50:00,
2013-08-09 05:00:00,60.7,57.7,30.02,SW,219,0.0,2.0,90,0.00,,,0.00,Wunderground v.1.15,2013-08-09 10:00:00,
2013-08-09 05:05:00,60.5,57.2,30.01,SW,219,0.0,2.0,89,0.00,,,0.00,Wunderground v.1.15,2013-08-09 10:05:00,
2013-08-09 05:10:00,60.3,57.0,30.02,SW,219,0.0,2.0,89,0.00,,,0.00,Wunderground v.1.15,2013-08-09 10:10:00,
2013-08-09 05:20:00,59.9,57.0,30.02,SW,219,0.0,2.0,90,0.00,,,0.00,Wunderground v.1.15,2013-08-09 10:20:00,
2013-08-09 05:30:00,59.7,56.8,30.02,SW,219,0.0,2.0,90,0.00,,,0.00,Wunderground v.1.15,2013-08-09 10:30:00,
2013-08-09 05:40:00,59.6,56.7,30.02,SW,219,0.0,2.0,90,0.00,,,0.00,Wunderground v.1.15,2013-08-09 10:40:00,
2013-08-09 05:50:00,60.5,57.9,30.02,NNW,329,1.0,1.0,91,0.00,,,0.00,Wunderground v.1.15,2013-08-09 10:50:00,
2013-08-09 05:55:00,60.6,58.0,30.02,NNW,329,1.0,2.0,91,0.00,,,0.00,Wunderground v.1.15,2013-08-09 10:55:00,
2013-08-09 06:00:00,60.6,58.0,30.02,NNW,329,0.0,0.0,91,0.00,,,0.00,Wunderground v.1.15,2013-08-09 11:00:00,
2013-08-09 06:10:00,60.7,58.1,30.02,NNW,329,0.0,3.0,91,0.00,,,0.00,Wunderground v.1.15,2013-08-09 11:10:00,
2013-08-09 06:20:00,60.5,57.9,30.03,NNW,329,0.0,3.0,91,0.00,,,0.00,Wunderground v.1.15,2013-08-09 11:20:00,
2013-08-09 06:30:00,60.2,57.3,30.04,NNW,329,0.0,3.0,90,0.00,,,0.00,Wunderground v.1.15,2013-08-09 11:30:00,
2013-08-09 06:40:00,60.2,57.3,30.05,NNW,329,0.0,3.0,90,0.00,,,0.00,Wunderground v.1.15,2013-08-09 11:40:00,
2013-08-09 06:45:00,59.9,57.0,30.05,NNW,329,0.0,3.0,90,0.00,,,0.00,Wunderground v.1.15,2013-08-09 11:45:00,
2013-08-09 06:55:00,59.8,57.2,30.05,NNW,329,0.0,3.0,91,0.00,,,0.00,Wunderground v.1.15,2013-08-09 11:55:00,
2013-08-09 07:05:00,60.1,57.5,30.05,NNW,329,0.0,3.0,91,0.00,,,0.00,Wunderground v.1.15,2013-08-09 12:05:00,
2013-08-09 07:10:00,60.3,57.7,30.05,NNW,329,0.0,3.0,91,0.00,,,0.00,Wunderground v.1.15,2013-08-09 12:10:00,
2013-08-09 07:20:00,60.9,58.6,30.05,NNW,329,0.0,3.0,92,0.00,,,0.00,Wunderground v.1.15,2013-08-09 12:20:00,
2013-08-09 07:30:00,61.6,59.3,30.05,NNW,329,0.0,3.0,92,0.00,,,0.00,Wunderground v.1.15,2013-08-09 12:30:00,
2013-08-09 07:40:00,62.2,59.5,30.05,NNW,329,0.0,3.0,91,0.00,,,0.00,Wunderground v.1.15,2013-08-09 12:40:00,
2013-08-09 07:50:00,62.6,60.2,30.05,NNW,329,0.0,3.0,92,0.00,,,0.00,Wunderground v.1.15,2013-08-09 12:50:00,
2013-08-09 07:55:00,62.8,60.1,30.06,NNW,329,0.0,3.0,91,0.00,,,0.00,Wunderground v.1.15,2013-08-09 12:55:00,
2013-08-09 08:05:00,63.3,60.9,30.06,ENE,78,1.0,3.0,92,0.00,,,0.00,Wunderground v.1.15,2013-08-09 13:05:00,
2013-08-09 08:10:00,63.7,61.0,30.06,ENE,66,2.0,2.0,91,0.00,,,0.00,Wunderground v.1.15,2013-08-09 13:10:00,
2013-08-09 08:20:00,64.4,61.7,30.06,NNE,13,1.0,3.0,91,0.00,,,0.00,Wunderground v.1.15,2013-08-09 13:20:00,
2013-08-09 08:30:00,65.2,62.8,30.06,NNE,19,0.0,3.0,92,0.00,,,0.00,Wunderground v.1.15,2013-08-09 13:30:00,
2013-08-09 08:35:00,65.7,63.3,30.06,NE,53,1.0,3.0,92,0.00,,,0.00,Wunderground v.1.15,2013-08-09 13:35:00,
2013-08-09 08:40:00,66.1,63.4,30.06,ENE,68,2.0,3.0,91,0.00,,,0.00,Wunderground v.1.15,2013-08-09 13:40:00,
2013-08-09 08:50:00,66.7,64.0,30.06,East,81,2.0,3.0,91,0.00,,,0.00,Wunderground v.1.15,2013-08-09 13:50:00,
2013-08-09 09:00:00,67.3,64.6,30.06,East,84,2.0,3.0,91,0.00,,,0.00,Wunderground v.1.15,2013-08-09 14:00:00,
2013-08-09 09:10:00,67.6,64.9,30.06,East,94,3.0,4.0,91,0.00,,,0.00,Wunderground v.1.15,2013-08-09 14:10:00,
2013-08-09 09:15:00,67.5,64.5,30.06,East,101,4.0,5.0,90,0.00,,,0.00,Wunderground v.1.15,2013-08-09 14:15:00,
2013-08-09 09:20:00,68.0,65.0,30.07,ENE,70,4.0,4.0,90,0.00,,,0.00,Wunderground v.1.15,2013-08-09 14:20:00,
2013-08-09 09:30:00,68.7,65.6,30.06,ENE,78,3.0,5.0,90,0.00,,,0.00,Wunderground v.1.15,2013-08-09 14:30:00,
2013-08-09 09:40:00,69.7,66.3,30.07,ENE,78,3.0,3.0,89,0.00,,,0.00,Wunderground v.1.15,2013-08-09 14:40:00,
2013-08-09 09:50:00,70.1,66.0,30.07,ENE,65,3.0,4.0,87,0.00,,,0.00,Wunderground v.1.15,2013-08-09 14:50:00,
2013-08-09 10:00:00,70.2,65.1,30.07,East,80,4.0,4.0,84,0.00,,,0.00,Wunderground v.1.15,2013-08-09 15:00:00,
2013-08-09 10:10:00,71.3,66.6,30.07,ENE,71,3.0,4.0,85,0.00,,,0.00,Wunderground v.1.15,2013-08-09 15:10:00,
2013-08-09 10:20:00,70.9,65.1,30.07,ENE,78,4.0,4.0,82,0.00,,,0.00,Wunderground v.1.15,2013-08-09 15:20:00,
2013-08-09 10:30:00,71.2,65.4,30.07,NE,53,3.0,4.0,82,0.00,,,0.00,Wunderground v.1.15,2013-08-09 15:30:00,
2013-08-09 10:40:00,72.0,65.1,30.07,ENE,69,3.0,5.0,79,0.00,,,0.00,Wunderground v.1.15,2013-08-09 15:40:00,
2013-08-09 10:45:00,72.3,65.1,30.07,North,5,3.0,5.0,78,0.00,,,0.00,Wunderground v.1.15,2013-08-09 15:45:00,
2013-08-09 10:55:00,72.7,64.7,30.07,NE,56,3.0,6.0,76,0.00,,,0.00,Wunderground v.1.15,2013-08-09 15:55:00,
2013-08-09 11:00:00,72.9,65.3,30.07,NW,320,4.0,4.0,77,0.00,,,0.00,Wunderground v.1.15,2013-08-09 16:00:00,
2013-08-09 11:10:00,73.2,64.0,30.07,NE,43,3.0,3.0,73,0.00,,,0.00,Wunderground v.1.15,2013-08-09 16:10:00,
2013-08-09 11:20:00,73.4,63.8,30.07,East,83,3.0,5.0,72,0.00,,,0.00,Wunderground v.1.15,2013-08-09 16:20:00,
2013-08-09 11:30:00,73.7,62.9,30.07,East,98,5.0,6.0,69,0.00,,,0.00,Wunderground v.1.15,2013-08-09 16:30:00,
2013-08-09 11:35:00,73.7,61.2,30.07,East,89,6.0,6.0,65,0.00,,,0.00,Wunderground v.1.15,2013-08-09 16:35:00,
2013-08-09 11:45:00,74.0,62.3,30.07,ESE,105,4.0,7.0,67,0.00,,,0.00,Wunderground v.1.15,2013-08-09 16:45:00,
2013-08-09 11:50:00,74.3,62.2,30.07,ENE,73,4.0,4.0,66,0.00,,,0.00,Wunderground v.1.15,2013-08-09 16:50:00,
2013-08-09 12:00:00,74.6,62.1,30.07,ENE,78,5.0,10.0,65,0.00,,,0.00,Wunderground v.1.15,2013-08-09 17:00:00,
2013-08-09 12:10:00,75.1,62.1,30.07,East,79,4.0,4.0,64,0.00,,,0.00,Wunderground v.1.15,2013-08-09 17:10:00,
2013-08-09 12:20:00,75.5,62.9,30.07,ESE,103,4.0,10.0,65,0.00,,,0.00,Wunderground v.1.15,2013-08-09 17:20:00,
2013-08-09 12:30:00,75.7,62.7,30.07,East,82,4.0,10.0,64,0.00,,,0.00,Wunderground v.1.15,2013-08-09 17:30:00,
2013-08-09 12:35:00,75.6,62.6,30.07,ENE,69,4.0,10.0,64,0.00,,,0.00,Wunderground v.1.15,2013-08-09 17:35:00,
2013-08-09 12:45:00,75.6,60.7,30.07,ENE,74,5.0,10.0,60,0.00,,,0.00,Wunderground v.1.15,2013-08-09 17:45:00,
2013-08-09 12:50:00,75.7,62.2,30.07,ESE,105,5.0,10.0,63,0.00,,,0.00,Wunderground v.1.15,2013-08-09 17:50:00,
2013-08-09 13:00:00,76.3,62.3,30.07,NE,47,4.0,10.0,62,0.00,,,0.00,Wunderground v.1.15,2013-08-09 18:00:00,
2013-08-09 13:10:00,76.4,62.0,30.07,ENE,59,4.0,10.0,61,0.00,,,0.00,Wunderground v.1.15,2013-08-09 18:10:00,
2013-08-09 13:20:00,76.5,61.6,30.07,East,96,4.0,4.0,60,0.00,,,0.00,Wunderground v.1.15,2013-08-09 18:20:00,
2013-08-09 13:30:00,76.7,61.8,30.06,East,82,4.0,10.0,60,0.00,,,0.00,Wunderground v.1.15,2013-08-09 18:30:00,
2013-08-09 13:35:00,76.9,61.5,30.06,East,84,4.0,10.0,59,0.00,,,0.00,Wunderground v.1.15,2013-08-09 18:35:00,
2013-08-09 13:40:00,77.3,63.7,30.06,East,93,4.0,10.0,63,0.00,,,0.00,Wunderground v.1.15,2013-08-09 18:40:00,
2013-08-09 13:50:00,77.2,60.8,30.06,ENE,66,5.0,5.0,57,0.00,,,0.00,Wunderground v.1.15,2013-08-09 18:50:00,
2013-08-09 14:05:00,77.6,62.6,30.06,ENE,76,4.0,10.0,60,0.00,,,0.00,Wunderground v.1.15,2013-08-09 19:05:00,
2013-08-09 14:10:00,77.8,62.3,30.06,ENE,69,4.0,4.0,59,0.00,,,0.00,Wunderground v.1.15,2013-08-09 19:10:00,
2013-08-09 14:15:00,78.0,61.0,30.07,East,90,4.0,10.0,56,0.00,,,0.00,Wunderground v.1.15,2013-08-09 19:15:00,
2013-08-09 14:25:00,78.0,61.0,30.07,ENE,71,4.0,10.0,56,0.00,,,0.00,Wunderground v.1.15,2013-08-09 19:25:00,
2013-08-09 14:30:00,78.2,61.7,30.07,ENE,70,3.0,10.0,57,0.00,,,0.00,Wunderground v.1.15,2013-08-09 19:30:00,
2013-08-09 14:40:00,78.5,62.5,30.07,East,98,3.0,3.0,58,0.00,,,0.00,Wunderground v.1.15,2013-08-09 19:40:00,
2013-08-09 14:50:00,78.4,62.4,30.07,East,82,4.0,10.0,58,0.00,,,0.00,Wunderground v.1.15,2013-08-09 19:50:00,
2013-08-09 15:00:00,78.5,63.0,30.07,ENE,77,4.0,10.0,59,0.00,,,0.00,Wunderground v.1.15,2013-08-09 20:00:00,
2013-08-09 15:05:00,78.6,62.6,30.07,East,88,3.0,10.0,58,0.00,,,0.00,Wunderground v.1.15,2013-08-09 20:05:00,
2013-08-09 15:15:00,78.5,62.0,30.07,East,92,4.0,10.0,57,0.00,,,0.00,Wunderground v.1.15,2013-08-09 20:15:00,
2013-08-09 15:25:00,78.6,62.6,30.07,East,79,3.0,10.0,58,0.00,,,0.00,Wunderground v.1.15,2013-08-09 20:25:00,
2013-08-09 15:30:00,78.5,62.5,30.06,East,86,3.0,10.0,58,0.00,,,0.00,Wunderground v.1.15,2013-08-09 20:30:00,
2013-08-09 15:40:00,78.5,63.0,30.07,ENE,62,5.0,5.0,59,0.00,,,0.00,Wunderground v.1.15,2013-08-09 20:40:00,
2013-08-09 15:50:00,78.5,62.5,30.07,ENE,78,4.0,4.0,58,0.00,,,0.00,Wunderground v.1.15,2013-08-09 20:50:00,
2013-08-09 16:00:00,78.8,61.8,30.06,East,80,3.0,10.0,56,0.00,,,0.00,Wunderground v.1.15,2013-08-09 21:00:00,
2013-08-09 16:10:00,78.5,63.0,30.06,ENE,64,5.0,5.0,59,0.00,,,0.00,Wunderground v.1.15,2013-08-09 21:10:00,
2013-08-09 16:15:00,78.6,61.1,30.06,East,80,4.0,10.0,55,0.00,,,0.00,Wunderground v.1.15,2013-08-09 21:15:00,
2013-08-09 16:20:00,78.8,61.8,30.07,East,87,3.0,10.0,56,0.00,,,0.00,Wunderground v.1.15,2013-08-09 21:20:00,
2013-08-09 16:30:00,78.6,60.6,30.07,East,85,4.0,4.0,54,0.00,,,0.00,Wunderground v.1.15,2013-08-09 21:30:00,
2013-08-09 16:40:00,78.7,60.7,30.07,East,90,2.0,10.0,54,0.00,,,0.00,Wunderground v.1.15,2013-08-09 21:40:00,
2013-08-09 16:50:00,78.6,61.1,30.06,East,84,3.0,10.0,55,0.00,,,0.00,Wunderground v.1.15,2013-08-09 21:50:00,
2013-08-09 16:55:00,78.6,60.0,30.07,ENE,76,4.0,10.0,53,0.00,,,0.00,Wunderground v.1.15,2013-08-09 21:55:00,
2013-08-09 17:00:00,78.6,59.0,30.07,ENE,76,3.0,10.0,51,0.00,,,0.00,Wunderground v.1.15,2013-08-09 22:00:00,
2013-08-09 17:10:00,78.7,60.1,30.07,East,84,3.0,10.0,53,0.00,,,0.00,Wunderground v.1.15,2013-08-09 22:10:00,
2013-08-09 17:20:00,78.5,59.4,30.07,East,80,3.0,10.0,52,0.00,,,0.00,Wunderground v.1.15,2013-08-09 22:20:00,
2013-08-09 17:30:00,78.6,61.1,30.06,East,79,3.0,10.0,55,0.00,,,0.00,Wunderground v.1.15,2013-08-09 22:30:00,
2013-08-09 17:35:00,78.4,59.9,30.06,East,86,4.0,10.0,53,0.00,,,0.00,Wunderground v.1.15,2013-08-09 22:35:00,
2013-08-09 17:40:00,78.2,59.7,30.06,ENE,61,4.0,4.0,53,0.00,,,0.00,Wunderground v.1.15,2013-08-09 22:40:00,
2013-08-09 17:50:00,78.1,60.1,30.06,East,98,4.0,10.0,54,0.00,,,0.00,Wunderground v.1.15,2013-08-09 22:50:00,
2013-08-09 18:00:00,78.1,60.6,30.06,East,92,5.0,8.0,55,0.00,,,0.00,Wunderground v.1.15,2013-08-09 23:00:00,
2013-08-09 18:10:00,78.0,62.0,30.05,East,94,4.0,8.0,58,0.00,,,0.00,Wunderground v.1.15,2013-08-09 23:10:00,
2013-08-09 18:20:00,77.7,61.3,30.05,East,86,4.0,8.0,57,0.00,,,0.00,Wunderground v.1.15,2013-08-09 23:20:00,
2013-08-09 18:25:00,77.6,60.2,30.06,East,90,4.0,8.0,55,0.00,,,0.00,Wunderground v.1.15,2013-08-09 23:25:00,
2013-08-09 18:35:00,77.4,61.5,30.06,East,95,4.0,8.0,58,0.00,,,0.00,Wunderground v.1.15,2013-08-09 23:35:00,
2013-08-09 18:40:00,76.5,60.1,30.06,East,100,4.0,8.0,57,0.00,,,0.00,Wunderground v.1.15,2013-08-09 23:40:00,
2013-08-09 18:50:00,74.8,60.9,30.06,East,88,3.0,3.0,62,0.00,,,0.00,Wunderground v.1.15,2013-08-09 23:50:00,
2013-08-09 19:00:00,73.6,61.5,30.06,East,86,2.0,2.0,66,0.00,,,0.00,Wunderground v.1.15,2013-08-10 00:00:00,
2013-08-09 19:10:00,72.8,61.6,30.06,East,86,2.0,8.0,68,0.00,,,0.00,Wunderground v.1.15,2013-08-10 00:10:00,
2013-08-09 19:15:00,72.5,62.2,30.06,East,86,2.0,8.0,70,0.00,,,0.00,Wunderground v.1.15,2013-08-10 00:15:00,
2013-08-09 19:25:00,72.0,62.5,30.07,East,86,0.0,8.0,72,0.00,,,0.00,Wunderground v.1.15,2013-08-10 00:25:00,
2013-08-09 19:30:00,71.8,62.7,30.06,East,86,0.0,8.0,73,0.00,,,0.00,Wunderground v.1.15,2013-08-10 00:30:00,
2013-08-09 19:40:00,71.4,62.7,30.06,East,86,2.0,2.0,74,0.00,,,0.00,Wunderground v.1.15,2013-08-10 00:40:00,
2013-08-09 19:50:00,71.0,62.7,30.07,East,86,1.0,8.0,75,0.00,,,0.00,Wunderground v.1.15,2013-08-10 00:50:00,
2013-08-09 20:00:00,70.5,62.6,30.07,East,86,1.0,8.0,76,0.00,,,0.00,Wunderground v.1.15,2013-08-10 01:00:00,
2013-08-09 20:10:00,70.1,62.6,30.06,East,86,1.0,1.0,77,0.00,,,0.00,Wunderground v.1.15,2013-08-10 01:10:00,
2013-08-09 20:20:00,69.6,62.1,30.07,East,86,2.0,2.0,77,0.00,,,0.00,Wunderground v.1.15,2013-08-10 01:20:00,
2013-08-09 20:30:00,69.1,61.9,30.07,East,86,0.0,8.0,78,0.00,,,0.00,Wunderground v.1.15,2013-08-10 01:30:00,
2013-08-09 20:40:00,68.5,61.7,30.07,East,86,1.0,8.0,79,0.00,,,0.00,Wunderground v.1.15,2013-08-10 01:40:00,
2013-08-09 20:50:00,68.1,62.0,30.07,East,86,1.0,1.0,81,0.00,,,0.00,Wunderground v.1.15,2013-08-10 01:50:00,
2013-08-09 20:55:00,67.8,61.8,30.07,East,86,1.0,8.0,81,0.00,,,0.00,Wunderground v.1.15,2013-08-10 01:55:00,
2013-08-09 21:05:00,67.3,61.6,30.08,East,86,0.0,8.0,82,0.00,,,0.00,Wunderground v.1.15,2013-08-10 02:05:00,
2013-08-09 21:10:00,67.1,61.4,30.08,East,86,0.0,8.0,82,0.00,,,0.00,Wunderground v.1.15,2013-08-10 02:10:00,
2013-08-09 21:20:00,66.7,61.4,30.08,East,86,0.0,8.0,83,0.00,,,0.00,Wunderground v.1.15,2013-08-10 02:20:00,
2013-08-09 21:30:00,66.4,61.1,30.09,East,86,0.0,8.0,83,0.00,,,0.00,Wunderground v.1.15,2013-08-10 02:30:00,
2013-08-09 21:35:00,66.2,60.9,30.09,East,86,0.0,8.0,83,0.00,,,0.00,Wunderground v.1.15,2013-08-10 02:35:00,
2013-08-09 21:40:00,66.0,60.7,30.09,East,86,1.0,8.0,83,0.00,,,0.00,Wunderground v.1.15,2013-08-10 02:40:00,
2013-08-09 21:50:00,65.7,60.4,30.09,East,86,0.0,8.0,83,0.00,,,0.00,Wunderground v.1.15,2013-08-10 02:50:00,
2013-08-09 22:00:00,65.2,59.9,30.10,East,86,0.0,8.0,83,0.00,,,0.00,Wunderground v.1.15,2013-08-10 03:00:00,
2013-08-09 22:10:00,65.2,59.6,30.10,East,86,1.0,1.0,82,0.00,,,0.00,Wunderground v.1.15,2013-08-10 03:10:00,
2013-08-09 22:20:00,65.0,59.4,30.10,East,86,0.0,8.0,82,0.00,,,0.00,Wunderground v.1.15,2013-08-10 03:20:00,
2013-08-09 22:25:00,64.7,58.7,30.10,East,86,0.0,8.0,81,0.00,,,0.00,Wunderground v.1.15,2013-08-10 03:25:00,
2013-08-09 22:35:00,64.5,58.5,30.10,East,86,0.0,8.0,81,0.00,,,0.00,Wunderground v.1.15,2013-08-10 03:35:00,
2013-08-09 22:40:00,64.5,58.5,30.11,East,86,0.0,8.0,81,0.00,,,0.00,Wunderground v.1.15,2013-08-10 03:40:00,
2013-08-09 22:50:00,64.3,58.3,30.11,East,86,0.0,8.0,81,0.00,,,0.00,Wunderground v.1.15,2013-08-10 03:50:00,
2013-08-09 23:00:00,64.3,58.3,30.11,East,86,0.0,8.0,81,0.00,,,0.00,Wunderground v.1.15,2013-08-10 04:00:00,
2013-08-09 23:05:00,64.3,58.3,30.11,East,86,0.0,8.0,81,0.00,,,0.00,Wunderground v.1.15,2013-08-10 04:05:00,
2013-08-09 23:10:00,64.0,58.1,30.11,East,86,0.0,8.0,81,0.00,,,0.00,Wunderground v.1.15,2013-08-10 04:10:00,
2013-08-09 23:15:00,63.9,58.3,30.11,East,86,0.0,8.0,82,0.00,,,0.00,Wunderground v.1.15,2013-08-10 04:15:00,
2013-08-09 23:20:00,63.8,58.2,30.11,East,86,0.0,8.0,82,0.00,,,0.00,Wunderground v.1.15,2013-08-10 04:20:00,
2013-08-09 23:30:00,63.4,57.8,30.11,East,86,0.0,8.0,82,0.00,,,0.00,Wunderground v.1.15,2013-08-10 04:30:00,
2013-08-09 23:35:00,63.3,57.7,30.11,East,86,0.0,8.0,82,0.00,,,0.00,Wunderground v.1.15,2013-08-10 04:35:00,
2013-08-09 23:40:00,63.2,57.6,30.11,East,86,0.0,8.0,82,0.00,,,0.00,Wunderground v.1.15,2013-08-10 04:40:00,
2013-08-09 23:45:00,63.1,57.9,30.11,East,86,0.0,8.0,83,0.00,,,0.00,Wunderground v.1.15,2013-08-10 04:45:00,
2013-08-09 23:50:00,63.1,57.9,30.11,East,86,0.0,8.0,83,0.00,,,0.00,Wunderground v.1.15,2013-08-10 04:50:00,